Time;durP1;ratioP1;P1;durP2;ratioP2;P2;SDS_P1;SDS_P2;PMS_P1;PMS_P2;Temp;Humidity;BMP_temperature;BMP_pressure;BME280_temperature;BME280_humidity;BME280_pressure;Samples;Min_cycle;Max_cycle;Signal;HPM_P1;HPM_P2
2024/04/03 00:00:31;;;;;;;6.57;1.60;;;10.20;99.90;;;;;;5017072;28;20500;-74
2024/04/03 00:03:16;;;;;;;10.13;2.10;;;10.10;99.90;;;;;;5018302;28;20612;-72
2024/04/03 00:06:01;;;;;;;8.83;1.70;;;10.10;99.90;;;;;;5014940;28;20942;-75
2024/04/03 00:08:47;;;;;;;7.17;1.87;;;10.00;99.90;;;;;;5023902;28;20459;-74
2024/04/03 00:11:33;;;;;;;6.63;1.80;;;10.00;99.90;;;;;;5020233;28;20471;-75
2024/04/03 00:14:18;;;;;;;4.77;1.33;;;10.00;99.90;;;;;;5021964;28;20446;-74
2024/04/03 00:17:04;;;;;;;7.33;1.70;;;10.00;99.90;;;;;;5016307;28;20426;-72
2024/04/03 00:19:48;;;;;;;7.37;2.43;;;10.00;99.90;;;;;;5021163;28;20634;-74
2024/04/03 00:22:34;;;;;;;4.43;1.40;;;10.00;99.90;;;;;;5021717;28;20516;-74
2024/04/03 00:25:20;;;;;;;5.90;1.73;;;10.00;99.90;;;;;;5013430;28;20469;-74
2024/04/03 00:28:07;;;;;;;6.23;2.30;;;10.00;99.90;;;;;;5018283;28;20836;-75
2024/04/03 00:30:52;;;;;;;9.00;1.60;;;10.00;99.90;;;;;;5021071;28;20590;-74
2024/04/03 00:33:38;;;;;;;4.97;1.57;;;10.00;99.90;;;;;;5016641;28;20535;-75
2024/04/03 00:36:23;;;;;;;5.93;1.80;;;10.00;99.90;;;;;;5021324;28;20506;-75
2024/04/03 00:39:08;;;;;;;10.20;1.93;;;10.00;99.90;;;;;;5024413;28;20529;-73
2024/04/03 00:41:54;;;;;;;6.47;1.67;;;10.00;99.90;;;;;;5021222;28;20687;-74
2024/04/03 00:44:48;;;;;;;5.83;2.20;;;10.10;99.90;;;;;;5021296;28;21040;-73
2024/04/03 00:47:32;;;;;;;6.40;2.17;;;10.10;99.90;;;;;;5019462;28;20479;-73
2024/04/03 00:50:18;;;;;;;3.43;1.50;;;10.00;99.90;;;;;;5024921;28;20851;-75
2024/04/03 00:53:04;;;;;;;6.87;1.33;;;10.00;99.90;;;;;;5018462;28;20454;-74
2024/04/03 00:55:50;;;;;;;5.37;1.17;;;10.00;99.90;;;;;;5023790;28;20457;-74
2024/04/03 00:58:36;;;;;;;4.43;1.70;;;9.80;99.90;;;;;;5021546;28;20475;-74
2024/04/03 01:01:21;;;;;;;8.40;1.37;;;9.80;99.90;;;;;;5023074;28;21002;-74
2024/04/03 01:04:06;;;;;;;9.10;1.90;;;9.70;99.90;;;;;;5021864;28;20829;-75
2024/04/03 01:06:52;;;;;;;11.87;2.23;;;9.50;99.90;;;;;;5019416;28;20467;-73
2024/04/03 01:09:36;;;;;;;2.90;1.63;;;9.40;99.90;;;;;;5019136;28;20443;-74
2024/04/03 01:12:22;;;;;;;8.70;1.80;;;9.50;99.90;;;;;;5028158;28;20506;-74
2024/04/03 01:15:11;;;;;;;5.70;1.90;;;9.40;99.90;;;;;;5026860;28;20446;-72
2024/04/03 01:17:56;;;;;;;9.23;2.07;;;9.50;99.90;;;;;;5028515;28;20910;-74
2024/04/03 01:20:40;;;;;;;31.93;2.50;;;9.40;99.90;;;;;;5028938;28;20508;-75
2024/04/03 01:23:26;;;;;;;6.07;1.57;;;9.50;99.90;;;;;;5023477;28;20463;-73
2024/04/03 01:26:12;;;;;;;4.50;1.40;;;9.50;99.90;;;;;;5022719;28;20837;-74
2024/04/03 01:28:58;;;;;;;6.87;2.37;;;9.60;99.90;;;;;;5022588;28;20454;-72
2024/04/03 01:31:42;;;;;;;15.03;2.50;;;9.60;99.90;;;;;;5026319;28;20835;-75
2024/04/03 01:34:28;;;;;;;5.97;2.13;;;9.70;99.90;;;;;;5026605;28;20851;-74
2024/04/03 01:37:13;;;;;;;5.53;1.60;;;9.70;99.90;;;;;;5023293;28;20820;-75
2024/04/03 01:39:58;;;;;;;10.00;2.50;;;9.70;99.90;;;;;;5027946;28;20521;-74
2024/04/03 01:42:45;;;;;;;4.47;1.30;;;9.70;99.90;;;;;;5022804;28;20847;-73
2024/04/03 01:45:30;;;;;;;7.23;1.80;;;9.70;99.90;;;;;;5022580;28;20459;-74
2024/04/03 01:48:15;;;;;;;8.27;2.00;;;9.70;99.90;;;;;;5023761;28;20681;-75
2024/04/03 01:51:00;;;;;;;6.47;2.17;;;9.70;99.90;;;;;;5026310;28;20483;-73
2024/04/03 01:53:45;;;;;;;6.50;2.10;;;9.60;99.90;;;;;;5018800;28;20823;-74
2024/04/03 01:56:31;;;;;;;7.33;1.30;;;9.70;99.90;;;;;;5021296;28;20454;-73
2024/04/03 01:59:17;;;;;;;7.13;1.70;;;9.70;99.90;;;;;;5022348;28;20907;-75
2024/04/03 02:02:02;;;;;;;11.47;1.93;;;9.70;99.90;;;;;;5018932;28;20482;-74
2024/04/03 02:04:47;;;;;;;12.33;2.90;;;9.80;99.90;;;;;;5022470;28;20463;-75
2024/04/03 02:07:32;;;;;;;6.87;2.03;;;9.80;99.90;;;;;;5023097;28;21166;-74
2024/04/03 02:10:17;;;;;;;6.70;2.77;;;9.70;99.90;;;;;;5021263;28;20455;-74
2024/04/03 02:13:03;;;;;;;7.40;1.97;;;9.80;99.90;;;;;;5022504;28;20840;-74
2024/04/03 02:15:58;;;;;;;6.23;1.60;;;9.90;99.90;;;;;;5024282;28;20485;-74
2024/04/03 02:18:44;;;;;;;3.97;1.50;;;9.90;99.90;;;;;;5021458;28;20462;-75
2024/04/03 02:21:28;;;;;;;7.97;2.00;;;9.90;99.90;;;;;;5023548;28;20540;-74
2024/04/03 02:24:14;;;;;;;3.30;1.20;;;9.90;99.90;;;;;;5021382;28;20505;-74
2024/04/03 02:27:00;;;;;;;6.43;1.90;;;9.90;99.90;;;;;;5020859;28;20942;-74
2024/04/03 02:29:45;;;;;;;6.17;2.00;;;9.90;99.90;;;;;;5021685;28;20458;-72
2024/04/03 02:32:31;;;;;;;10.50;2.00;;;9.90;99.90;;;;;;5019158;28;20561;-74
2024/04/03 02:35:17;;;;;;;5.17;1.63;;;10.00;99.90;;;;;;5024889;28;20541;-75
2024/04/03 02:38:02;;;;;;;4.30;1.53;;;9.90;99.90;;;;;;5022100;28;20524;-74
2024/04/03 02:40:47;;;;;;;9.20;2.10;;;10.00;99.90;;;;;;5025063;28;20552;-75
2024/04/03 02:43:32;;;;;;;10.00;2.27;;;10.00;99.90;;;;;;5021232;28;20477;-75
2024/04/03 02:46:17;;;;;;;19.10;2.77;;;9.90;99.90;;;;;;5022273;28;20864;-74
2024/04/03 02:49:04;;;;;;;4.30;1.50;;;9.90;99.90;;;;;;5022468;28;20836;-74
2024/04/03 02:51:49;;;;;;;5.90;1.93;;;9.90;99.90;;;;;;5021544;28;20469;-74
2024/04/03 02:54:34;;;;;;;3.93;1.70;;;9.90;99.90;;;;;;5020063;28;20867;-73
2024/04/03 02:57:19;;;;;;;4.73;2.57;;;9.90;99.90;;;;;;5023329;28;20455;-74
2024/04/03 03:00:06;;;;;;;9.70;1.77;;;9.90;99.90;;;;;;5022893;28;20475;-75
2024/04/03 03:02:50;;;;;;;4.00;1.73;;;9.90;99.90;;;;;;5022697;28;20475;-74
2024/04/03 03:05:38;;;;;;;3.93;1.50;;;9.90;99.90;;;;;;5017932;28;20958;-74
2024/04/03 03:08:22;;;;;;;8.43;1.57;;;9.90;99.90;;;;;;5019930;28;20455;-74
2024/04/03 03:11:08;;;;;;;13.33;2.83;;;9.90;99.90;;;;;;5016291;28;21005;-74
2024/04/03 03:13:53;;;;;;;6.60;1.50;;;9.90;99.90;;;;;;5019100;28;21018;-74
2024/04/03 03:16:38;;;;;;;4.40;1.60;;;9.90;99.90;;;;;;5017426;28;20302;-74
2024/04/03 03:19:23;;;;;;;2.60;1.40;;;9.90;99.90;;;;;;5016831;28;20826;-74
2024/04/03 03:22:10;;;;;;;5.97;1.70;;;10.00;99.90;;;;;;5024139;28;20474;-74
2024/04/03 03:24:54;;;;;;;2.47;1.27;;;10.10;99.90;;;;;;5015717;28;20452;-74
2024/04/03 03:27:40;;;;;;;3.30;1.20;;;10.10;99.90;;;;;;5019697;28;20453;-74
2024/04/03 03:30:25;;;;;;;6.00;1.57;;;10.00;99.90;;;;;;5020087;28;20590;-72
2024/04/03 03:33:10;;;;;;;13.63;1.60;;;10.10;99.90;;;;;;5019088;28;20487;-73
2024/04/03 03:35:57;;;;;;;5.40;1.93;;;10.10;99.90;;;;;;5025210;28;20823;-73
2024/04/03 03:38:44;;;;;;;6.00;1.70;;;10.00;99.90;;;;;;5026087;28;20467;-73
2024/04/03 03:41:30;;;;;;;5.20;1.30;;;9.90;99.90;;;;;;5018826;28;20532;-73
2024/04/03 03:44:16;;;;;;;5.03;1.47;;;9.90;99.90;;;;;;5026261;28;20541;-73
2024/04/03 03:47:01;;;;;;;5.50;1.70;;;10.00;99.90;;;;;;5020473;28;22657;-73
2024/04/03 03:52:49;;;;;;;11.40;2.60;;;9.90;99.90;;;;;;5020296;28;20477;-73
2024/04/03 03:55:36;;;;;;;3.90;1.43;;;9.90;99.90;;;;;;5016850;28;20441;-73
2024/04/03 03:58:22;;;;;;;4.63;1.80;;;9.90;99.90;;;;;;5022615;28;20474;-73
2024/04/03 04:01:08;;;;;;;9.10;2.00;;;10.00;99.90;;;;;;5017721;28;20528;-73
2024/04/03 04:03:53;;;;;;;4.10;1.90;;;10.00;99.90;;;;;;5016921;28;20430;-73
2024/04/03 04:06:39;;;;;;;5.57;1.80;;;10.00;99.90;;;;;;5023497;28;20454;-73
2024/04/03 04:09:24;;;;;;;3.97;1.47;;;9.90;99.90;;;;;;5020174;28;20556;-73
2024/04/03 04:12:11;;;;;;;3.90;1.40;;;9.90;99.90;;;;;;5026474;28;20479;-73
2024/04/03 04:14:56;;;;;;;6.13;1.50;;;9.90;99.90;;;;;;5020530;28;20459;-73
2024/04/03 04:17:42;;;;;;;7.10;2.97;;;9.90;99.90;;;;;;5023037;28;20452;-73
2024/04/03 04:20:27;;;;;;;4.30;1.30;;;9.90;99.90;;;;;;5022432;28;20474;-73
2024/04/03 04:23:13;;;;;;;4.00;1.80;;;9.80;99.90;;;;;;5022316;28;21026;-73
2024/04/03 04:26:01;;;;;;;11.73;1.93;;;9.70;99.90;;;;;;5019363;28;21206;-72
2024/04/03 04:28:48;;;;;;;4.90;2.10;;;9.80;99.90;;;;;;5022019;28;20843;-72
2024/04/03 04:31:33;;;;;;;3.83;1.60;;;9.80;99.90;;;;;;5023556;28;20455;-73
2024/04/03 04:34:18;;;;;;;5.83;1.90;;;9.80;99.90;;;;;;5022427;28;20522;-73
2024/04/03 04:37:05;;;;;;;8.53;1.90;;;9.80;99.90;;;;;;5022082;28;20458;-73
2024/04/03 04:39:49;;;;;;;6.30;2.10;;;9.70;99.90;;;;;;5022725;28;20476;-73
2024/04/03 04:42:35;;;;;;;5.73;1.50;;;9.60;99.90;;;;;;5023707;28;20973;-73
2024/04/03 04:45:21;;;;;;;4.00;1.50;;;9.70;99.90;;;;;;5024999;28;20562;-74
2024/04/03 04:48:07;;;;;;;4.60;1.70;;;9.70;99.90;;;;;;5018842;28;20502;-74
2024/04/03 04:50:52;;;;;;;8.13;1.50;;;9.70;99.90;;;;;;5014443;28;20558;-73
2024/04/03 04:53:38;;;;;;;3.93;1.30;;;9.70;99.90;;;;;;5016058;28;20455;-73
2024/04/03 04:56:23;;;;;;;4.60;1.40;;;9.70;99.90;;;;;;5019903;28;20452;-74
2024/04/03 04:59:09;;;;;;;4.67;1.77;;;9.70;99.90;;;;;;5013906;28;20449;-73
2024/04/03 05:01:55;;;;;;;16.07;2.17;;;9.70;99.90;;;;;;5018151;28;20851;-74
2024/04/03 05:04:41;;;;;;;6.63;1.80;;;9.70;99.90;;;;;;5013945;28;20453;-74
2024/04/03 05:07:25;;;;;;;5.67;1.77;;;9.70;99.90;;;;;;5011188;28;20893;-74
2024/04/03 05:10:11;;;;;;;7.10;1.73;;;9.60;99.90;;;;;;5019424;28;20451;-74
2024/04/03 05:12:55;;;;;;;3.33;1.40;;;9.50;99.90;;;;;;5019097;28;20602;-74
2024/04/03 05:15:41;;;;;;;2.67;1.70;;;9.50;99.90;;;;;;5018607;28;20455;-73
2024/04/03 05:18:28;;;;;;;3.03;1.50;;;9.50;99.90;;;;;;5019697;28;20444;-73
2024/04/03 05:21:14;;;;;;;5.63;1.53;;;9.50;99.90;;;;;;5013245;28;20803;-74
2024/04/03 05:23:59;;;;;;;3.53;1.43;;;9.50;99.90;;;;;;5014937;28;20504;-73
2024/04/03 05:26:44;;;;;;;9.97;1.90;;;9.60;99.90;;;;;;5016117;28;20458;-74
2024/04/03 05:29:30;;;;;;;4.10;1.47;;;9.70;99.90;;;;;;5016415;28;20482;-73
2024/04/03 05:32:14;;;;;;;8.63;1.77;;;9.70;99.90;;;;;;5014178;28;20526;-73
2024/04/03 05:35:01;;;;;;;6.37;1.93;;;9.60;99.90;;;;;;5015991;28;20449;-74
2024/04/03 05:37:47;;;;;;;13.23;6.47;;;9.60;99.90;;;;;;5013419;28;20474;-74
2024/04/03 05:40:32;;;;;;;51.53;20.73;;;9.50;99.90;;;;;;5016740;28;20887;-73
2024/04/03 05:43:18;;;;;;;24.23;12.27;;;9.50;99.90;;;;;;5016488;28;20566;-73
2024/04/03 05:46:03;;;;;;;14.33;7.90;;;9.60;99.90;;;;;;5015433;28;20458;-73
2024/04/03 05:48:49;;;;;;;14.50;7.57;;;9.70;99.90;;;;;;5012656;28;20475;-73
2024/04/03 05:51:35;;;;;;;9.40;5.23;;;9.70;99.90;;;;;;5012582;28;20484;-73
2024/04/03 05:54:21;;;;;;;8.67;3.87;;;9.70;99.90;;;;;;5016057;28;21068;-74
2024/04/03 05:57:05;;;;;;;9.80;3.17;;;9.80;99.90;;;;;;5014577;28;20477;-74
2024/04/03 05:59:51;;;;;;;7.77;2.77;;;9.80;99.90;;;;;;5016495;28;20563;-73
2024/04/03 06:02:36;;;;;;;8.43;2.70;;;9.90;99.90;;;;;;5018949;28;20529;-73
2024/04/03 06:05:22;;;;;;;7.07;3.90;;;9.90;99.90;;;;;;5019381;28;20496;-73
2024/04/03 06:08:08;;;;;;;14.47;6.90;;;9.90;99.90;;;;;;5016507;28;20462;-73
2024/04/03 06:10:54;;;;;;;18.60;7.20;;;9.90;99.90;;;;;;5017266;28;20470;-73
2024/04/03 06:13:39;;;;;;;13.60;6.83;;;10.00;99.90;;;;;;5018261;28;20452;-73
2024/04/03 06:16:24;;;;;;;17.50;6.43;;;10.00;99.90;;;;;;5017366;28;20521;-73
2024/04/03 06:19:12;;;;;;;8.30;5.50;;;10.10;99.90;;;;;;5016082;28;20463;-73
2024/04/03 06:21:57;;;;;;;13.90;5.70;;;10.10;99.90;;;;;;5016793;28;20471;-73
2024/04/03 06:24:44;;;;;;;16.70;5.20;;;10.10;99.90;;;;;;5020416;28;20419;-73
2024/04/03 06:27:29;;;;;;;3.43;2.10;;;10.10;99.90;;;;;;5016893;28;20487;-73
2024/04/03 06:30:15;;;;;;;5.67;2.20;;;10.20;99.90;;;;;;5016424;28;20542;-73
2024/04/03 06:33:00;;;;;;;5.73;2.20;;;10.30;99.90;;;;;;5016735;28;20618;-73
2024/04/03 06:35:46;;;;;;;5.00;2.07;;;10.40;99.90;;;;;;5018553;28;20473;-73
2024/04/03 06:38:30;;;;;;;4.93;1.40;;;10.60;99.90;;;;;;5019692;28;20589;-73
2024/04/03 06:41:17;;;;;;;3.83;1.20;;;10.70;99.90;;;;;;5017124;28;20514;-73
2024/04/03 06:44:03;;;;;;;4.70;1.50;;;10.70;99.90;;;;;;5017190;28;20604;-73
2024/04/03 06:46:48;;;;;;;2.07;1.10;;;10.80;99.90;;;;;;5021485;28;20509;-73
2024/04/03 06:49:33;;;;;;;5.73;1.67;;;10.90;99.90;;;;;;5021640;28;20460;-73
2024/04/03 06:52:18;;;;;;;4.33;1.60;;;10.90;99.90;;;;;;5017297;28;20508;-73
2024/04/03 06:55:04;;;;;;;7.80;1.70;;;10.90;99.90;;;;;;5018808;28;20542;-73
2024/04/03 06:57:51;;;;;;;6.33;1.90;;;10.80;99.90;;;;;;5021227;28;20464;-73
2024/04/03 07:00:35;;;;;;;7.03;1.83;;;10.70;99.90;;;;;;5020209;28;20587;-73
2024/04/03 07:03:21;;;;;;;6.57;2.50;;;10.80;99.90;;;;;;5023090;28;20447;-73
2024/04/03 07:06:06;;;;;;;6.90;2.73;;;10.80;99.90;;;;;;5020967;28;20537;-73
2024/04/03 07:08:52;;;;;;;4.60;2.37;;;10.80;99.90;;;;;;5023565;28;20494;-73
2024/04/03 07:11:38;;;;;;;5.10;2.10;;;10.80;99.90;;;;;;5022646;28;20541;-73
2024/04/03 07:14:24;;;;;;;25.63;10.50;;;10.80;99.90;;;;;;5018276;28;20432;-73
2024/04/03 07:17:09;;;;;;;6.10;2.63;;;10.90;99.90;;;;;;5019156;28;20451;-73
2024/04/03 07:19:57;;;;;;;12.80;2.87;;;10.90;99.90;;;;;;5018169;28;20490;-73
2024/04/03 07:22:43;;;;;;;5.80;3.40;;;10.90;99.90;;;;;;5015945;28;20497;-73
2024/04/03 07:25:28;;;;;;;35.30;14.67;;;10.90;99.90;;;;;;5015802;28;20468;-73
2024/04/03 07:28:13;;;;;;;11.67;6.13;;;10.90;99.90;;;;;;5013533;28;20464;-73
2024/04/03 07:30:59;;;;;;;6.10;3.40;;;10.90;99.90;;;;;;5013371;28;21021;-73
2024/04/03 07:33:45;;;;;;;4.90;2.60;;;10.90;99.90;;;;;;5016466;28;20450;-73
2024/04/03 07:36:29;;;;;;;4.00;1.73;;;10.90;99.90;;;;;;5013562;28;21067;-73
2024/04/03 07:39:15;;;;;;;8.70;2.13;;;10.80;99.90;;;;;;5012462;28;20981;-73
2024/04/03 07:42:00;;;;;;;3.20;1.77;;;10.90;99.90;;;;;;5014913;28;20536;-73
2024/04/03 07:44:46;;;;;;;4.53;1.73;;;10.80;99.90;;;;;;5012820;28;22067;-74
2024/04/03 07:47:33;;;;;;;3.43;1.53;;;10.90;99.90;;;;;;5018478;28;20532;-73
2024/04/03 07:50:19;;;;;;;3.97;2.10;;;10.90;99.90;;;;;;5017853;28;20438;-73
2024/04/03 07:53:04;;;;;;;6.30;2.00;;;10.80;99.90;;;;;;5016107;28;21018;-74
2024/04/03 07:55:51;;;;;;;7.87;1.90;;;10.80;99.90;;;;;;5013677;28;20455;-73
2024/04/03 07:58:35;;;;;;;4.87;1.70;;;10.80;99.90;;;;;;5016725;28;20807;-74
2024/04/03 08:01:21;;;;;;;2.73;1.50;;;10.80;99.90;;;;;;5014197;28;20523;-74
2024/04/03 08:04:09;;;;;;;4.97;1.60;;;10.80;99.90;;;;;;5015433;28;20451;-73
2024/04/03 08:06:54;;;;;;;9.87;2.93;;;10.90;99.90;;;;;;5017242;28;20981;-73
2024/04/03 08:09:40;;;;;;;4.23;1.50;;;10.90;99.90;;;;;;5013778;28;20455;-74
2024/04/03 08:12:24;;;;;;;5.60;2.13;;;10.90;99.90;;;;;;5014955;28;21122;-73
2024/04/03 08:15:13;;;;;;;5.70;2.20;;;10.90;99.90;;;;;;5014582;28;20512;-73
2024/04/03 08:17:58;;;;;;;5.47;1.73;;;11.00;99.90;;;;;;5015623;28;20459;-74
2024/04/03 08:20:45;;;;;;;3.60;1.90;;;11.00;99.90;;;;;;5015313;28;20483;-74
2024/04/03 08:23:30;;;;;;;5.90;2.60;;;11.10;99.90;;;;;;5014269;28;20455;-73
2024/04/03 08:26:16;;;;;;;5.13;1.90;;;11.30;99.90;;;;;;5013363;28;20462;-73
2024/04/03 08:29:01;;;;;;;4.90;1.83;;;11.40;99.90;;;;;;5013270;28;20456;-74
2024/04/03 08:31:46;;;;;;;7.37;2.10;;;11.40;99.90;;;;;;5016048;28;20456;-74
2024/04/03 08:34:31;;;;;;;6.43;2.13;;;11.50;99.90;;;;;;5015525;28;20429;-74
2024/04/03 08:37:19;;;;;;;4.13;1.97;;;11.50;99.90;;;;;;5017037;28;20471;-73
2024/04/03 08:40:05;;;;;;;4.07;2.33;;;11.60;99.90;;;;;;5017977;28;20426;-74
2024/04/03 08:42:51;;;;;;;3.90;2.03;;;11.60;99.90;;;;;;5019898;28;20467;-73
2024/04/03 08:45:42;;;;;;;5.70;2.23;;;11.70;99.90;;;;;;5016266;28;20431;-73
2024/04/03 08:48:29;;;;;;;15.13;2.60;;;11.70;99.90;;;;;;5017599;28;20431;-74
2024/04/03 08:51:14;;;;;;;4.13;1.93;;;11.80;99.90;;;;;;5019218;28;21100;-74
2024/04/03 08:54:04;;;;;;;12.50;2.60;;;11.90;99.90;;;;;;5021724;28;20451;-73
2024/04/03 08:56:49;;;;;;;5.83;1.97;;;12.00;99.90;;;;;;5023182;28;20440;-74
2024/04/03 08:59:38;;;;;;;5.60;2.00;;;12.20;99.90;;;;;;5021367;28;20933;-73
2024/04/03 09:02:22;;;;;;;4.77;1.87;;;12.30;99.90;;;;;;5017531;28;20479;-74
2024/04/03 09:05:11;;;;;;;6.50;1.50;;;12.40;99.90;;;;;;5019644;28;20441;-74
2024/04/03 09:08:03;;;;;;;3.43;1.60;;;12.50;99.90;;;;;;5015932;28;20456;-73
2024/04/03 09:10:54;;;;;;;3.53;1.60;;;12.50;99.90;;;;;;5021120;28;20460;-74
2024/04/03 09:13:39;;;;;;;4.93;1.93;;;12.60;99.90;;;;;;5021780;28;20434;-74
2024/04/03 09:16:25;;;;;;;3.43;1.30;;;12.60;99.90;;;;;;5017141;28;20452;-74
2024/04/03 09:19:10;;;;;;;4.00;1.17;;;12.70;99.90;;;;;;5016546;28;20452;-73
2024/04/03 09:21:58;;;;;;;3.00;1.37;;;12.80;99.90;;;;;;5017374;28;20964;-73
2024/04/03 09:24:43;;;;;;;5.27;1.60;;;12.90;99.90;;;;;;5022079;28;20446;-73
2024/04/03 09:27:30;;;;;;;2.10;0.80;;;13.00;99.90;;;;;;5022511;28;20713;-73
2024/04/03 09:30:14;;;;;;;3.27;1.10;;;13.00;99.90;;;;;;5021115;28;20472;-73
2024/04/03 09:33:00;;;;;;;3.80;1.00;;;13.10;99.90;;;;;;5023742;28;20445;-73
2024/04/03 09:35:45;;;;;;;1.40;0.70;;;13.20;99.90;;;;;;5018976;28;20482;-73
2024/04/03 09:38:31;;;;;;;1.97;0.90;;;13.20;99.90;;;;;;5024210;28;20479;-73
2024/04/03 09:41:16;;;;;;;1.83;0.90;;;13.20;99.90;;;;;;5025174;28;21297;-73
2024/04/03 09:44:05;;;;;;;2.33;1.20;;;13.20;99.90;;;;;;5028767;28;20466;-73
2024/04/03 09:46:51;;;;;;;1.50;0.60;;;13.20;99.90;;;;;;5015447;28;20446;-73
2024/04/03 09:49:42;;;;;;;2.90;1.07;;;13.20;99.90;;;;;;5021956;28;20459;-73
2024/04/03 09:52:28;;;;;;;2.53;1.10;;;13.20;99.90;;;;;;5018353;28;20440;-74
2024/04/03 09:55:14;;;;;;;6.30;1.13;;;13.20;99.90;;;;;;5019380;28;20289;-73
2024/04/03 09:58:00;;;;;;;3.00;1.40;;;13.30;99.90;;;;;;5017062;28;20463;-73
2024/04/03 10:00:54;;;;;;;4.43;1.20;;;13.30;99.90;;;;;;5016350;28;20822;-74
2024/04/03 10:03:38;;;;;;;8.97;2.97;;;13.30;99.90;;;;;;5024197;28;21091;-73
2024/04/03 10:06:27;;;;;;;2.30;1.40;;;13.20;99.90;;;;;;5016352;28;21006;-74
2024/04/03 10:09:16;;;;;;;2.33;1.03;;;13.20;99.90;;;;;;5016226;28;20453;-73
2024/04/03 10:12:04;;;;;;;4.07;1.00;;;13.20;99.90;;;;;;5018059;28;20523;-74
2024/04/03 10:14:56;;;;;;;2.13;0.77;;;13.20;99.90;;;;;;5023814;28;20463;-73
2024/04/03 10:17:47;;;;;;;2.37;1.10;;;13.20;99.90;;;;;;5021604;28;20506;-73
2024/04/03 10:20:36;;;;;;;3.27;1.00;;;13.30;99.90;;;;;;5019714;28;20456;-73
2024/04/03 10:23:22;;;;;;;2.70;1.03;;;13.20;99.90;;;;;;5021651;28;20548;-73
2024/04/03 10:26:08;;;;;;;2.93;1.07;;;13.20;99.90;;;;;;5017181;28;20430;-73
2024/04/03 10:28:53;;;;;;;4.47;1.70;;;13.20;99.90;;;;;;5023248;28;20583;-73
2024/04/03 10:31:38;;;;;;;4.80;1.37;;;13.30;99.90;;;;;;5021751;28;20546;-73
2024/04/03 10:34:25;;;;;;;2.80;0.93;;;13.40;99.90;;;;;;5023711;28;20510;-73
2024/04/03 10:37:10;;;;;;;2.67;1.00;;;13.40;99.90;;;;;;5021625;28;20472;-74
2024/04/03 10:39:55;;;;;;;2.10;1.00;;;13.50;99.90;;;;;;5023473;28;20433;-73
2024/04/03 10:42:40;;;;;;;7.03;2.87;;;13.40;99.90;;;;;;5028200;28;20441;-73
2024/04/03 10:45:27;;;;;;;4.00;1.80;;;13.40;99.90;;;;;;5027198;28;20483;-72
2024/04/03 10:48:11;;;;;;;2.13;0.87;;;13.40;99.90;;;;;;5026590;28;20516;-72
2024/04/03 10:50:59;;;;;;;2.97;1.23;;;13.20;99.90;;;;;;5026356;28;20539;-74
2024/04/03 10:53:44;;;;;;;3.80;1.10;;;13.20;99.90;;;;;;5021727;28;20487;-74
2024/04/03 10:56:29;;;;;;;2.20;1.10;;;13.00;99.90;;;;;;5020004;28;20407;-74
2024/04/03 10:59:15;;;;;;;3.40;1.10;;;13.10;99.90;;;;;;5022219;28;20782;-74
2024/04/03 11:02:00;;;;;;;2.93;0.97;;;12.90;99.90;;;;;;5024035;28;20560;-74
2024/04/03 11:04:45;;;;;;;2.63;1.23;;;12.90;99.90;;;;;;5027948;28;21359;-74
2024/04/03 11:07:32;;;;;;;2.57;1.10;;;12.80;99.90;;;;;;5027107;28;20490;-74
2024/04/03 11:10:17;;;;;;;2.43;1.10;;;12.90;99.90;;;;;;5024967;28;21163;-74
2024/04/03 11:13:03;;;;;;;6.53;1.40;;;12.80;99.90;;;;;;5019461;28;20559;-74
2024/04/03 11:15:52;;;;;;;1.80;1.00;;;12.80;99.90;;;;;;5026824;28;20571;-73
2024/04/03 11:18:37;;;;;;;3.20;1.20;;;12.80;99.90;;;;;;5024527;28;20482;-74
2024/04/03 11:21:23;;;;;;;2.87;1.00;;;12.80;99.90;;;;;;5024160;28;20512;-73
2024/04/03 11:24:10;;;;;;;2.10;1.20;;;12.80;99.90;;;;;;5028148;28;20435;-74
2024/04/03 11:26:54;;;;;;;2.07;1.10;;;12.80;99.90;;;;;;5016714;28;20410;-73
2024/04/03 11:29:41;;;;;;;5.00;1.30;;;12.70;99.90;;;;;;5019475;28;21074;-73
2024/04/03 11:32:27;;;;;;;5.50;2.27;;;12.60;99.90;;;;;;5014886;28;21026;-73
2024/04/03 11:35:13;;;;;;;8.20;2.60;;;12.40;99.90;;;;;;5019670;28;20447;-73
2024/04/03 11:38:00;;;;;;;8.40;3.77;;;12.30;99.90;;;;;;5021294;28;20439;-74
2024/04/03 11:40:48;;;;;;;14.37;3.70;;;12.40;99.90;;;;;;5023851;28;20482;-74
2024/04/03 11:43:32;;;;;;;5.47;2.00;;;12.40;99.90;;;;;;5026953;28;20510;-74
2024/04/03 11:46:18;;;;;;;5.90;2.07;;;12.40;99.90;;;;;;5020325;28;20424;-73
2024/04/03 11:49:04;;;;;;;1.93;1.20;;;12.40;99.90;;;;;;5027253;28;20489;-74
2024/04/03 11:51:49;;;;;;;6.03;1.70;;;12.40;99.90;;;;;;5026430;28;20499;-73
2024/04/03 11:54:34;;;;;;;4.63;2.23;;;12.50;99.90;;;;;;5021209;28;21012;-73
2024/04/03 11:57:21;;;;;;;15.20;3.07;;;12.40;99.90;;;;;;5027689;28;20423;-74
2024/04/03 12:00:11;;;;;;;6.20;2.50;;;12.30;99.90;;;;;;5021644;28;20443;-73
2024/04/03 12:02:56;;;;;;;2.33;1.23;;;12.20;99.90;;;;;;5024923;28;20560;-74
2024/04/03 12:05:41;;;;;;;2.87;1.70;;;12.20;99.90;;;;;;5022121;28;20434;-74
2024/04/03 12:08:27;;;;;;;5.03;1.10;;;12.20;99.90;;;;;;5019581;28;20483;-74
2024/04/03 12:11:11;;;;;;;5.23;1.77;;;12.30;99.90;;;;;;5021029;28;20574;-74
2024/04/03 12:14:00;;;;;;;3.40;1.27;;;12.30;99.90;;;;;;5023663;28;20434;-74
2024/04/03 12:16:51;;;;;;;2.63;1.10;;;12.30;99.90;;;;;;5024184;28;20447;-74
2024/04/03 12:19:44;;;;;;;10.30;3.30;;;12.20;99.90;;;;;;5026883;28;20415;-73
2024/04/03 12:22:29;;;;;;;4.80;1.30;;;12.20;99.90;;;;;;5025753;28;20824;-73
2024/04/03 12:25:15;;;;;;;7.90;2.50;;;12.00;99.90;;;;;;5021455;28;20440;-74
2024/04/03 12:28:00;;;;;;;5.43;1.77;;;12.10;99.90;;;;;;5025219;28;20443;-73
2024/04/03 12:30:47;;;;;;;2.87;1.63;;;12.10;99.90;;;;;;5024884;28;20452;-74
2024/04/03 12:33:31;;;;;;;5.87;1.30;;;12.00;99.90;;;;;;5024117;28;20545;-74
2024/04/03 12:36:17;;;;;;;6.77;1.30;;;11.80;99.90;;;;;;5024232;28;20403;-74
2024/04/03 12:39:03;;;;;;;2.07;1.20;;;11.70;99.90;;;;;;5023717;28;20466;-74
2024/04/03 12:41:50;;;;;;;2.10;1.23;;;11.60;99.90;;;;;;5022105;28;21014;-73
2024/04/03 12:44:34;;;;;;;2.30;1.20;;;11.60;99.90;;;;;;5021531;28;20832;-74
2024/04/03 12:47:22;;;;;;;4.00;1.40;;;11.70;99.90;;;;;;5020682;28;20425;-73
2024/04/03 12:50:07;;;;;;;2.33;1.10;;;11.70;99.90;;;;;;5021390;28;20483;-73
2024/04/03 12:52:53;;;;;;;3.00;1.23;;;11.60;99.90;;;;;;5021457;28;20871;-73
2024/04/03 12:55:38;;;;;;;4.90;1.47;;;11.50;99.90;;;;;;5018554;28;20433;-73
2024/04/03 12:58:24;;;;;;;4.60;1.50;;;11.50;99.90;;;;;;5021777;28;20958;-73
2024/04/03 13:01:08;;;;;;;3.40;1.57;;;11.50;99.90;;;;;;5018170;28;20459;-73
2024/04/03 13:03:57;;;;;;;3.97;1.00;;;11.60;99.90;;;;;;5025404;28;20471;-73
2024/04/03 13:06:41;;;;;;;1.93;1.07;;;11.60;99.90;;;;;;5021043;28;20831;-74
2024/04/03 13:09:27;;;;;;;1.73;1.17;;;11.60;99.90;;;;;;5027658;28;20933;-73
2024/04/03 13:12:12;;;;;;;2.60;1.40;;;11.70;99.90;;;;;;5026035;28;20784;-73
2024/04/03 13:14:58;;;;;;;3.93;1.47;;;11.80;99.90;;;;;;5029959;28;20423;-73
2024/04/03 13:17:43;;;;;;;3.60;1.70;;;11.80;99.90;;;;;;5031398;28;21062;-73
2024/04/03 13:20:29;;;;;;;4.90;1.80;;;11.70;99.90;;;;;;5030237;28;20409;-74
2024/04/03 13:23:14;;;;;;;3.07;1.40;;;11.80;99.90;;;;;;5024331;28;20456;-73
2024/04/03 13:26:00;;;;;;;3.23;1.40;;;11.70;99.90;;;;;;5026400;28;20966;-73
2024/04/03 13:28:47;;;;;;;4.80;1.73;;;11.80;99.90;;;;;;5017772;28;20462;-73
2024/04/03 13:31:33;;;;;;;4.63;1.60;;;11.90;99.90;;;;;;5020631;28;20896;-73
2024/04/03 13:34:18;;;;;;;2.30;1.30;;;11.90;99.90;;;;;;5025632;28;20454;-74
2024/04/03 13:37:06;;;;;;;2.43;1.23;;;11.80;99.90;;;;;;5027973;28;20444;-74
2024/04/03 13:39:50;;;;;;;2.17;1.20;;;11.90;99.90;;;;;;5027380;28;20975;-74
2024/04/03 13:42:36;;;;;;;2.90;1.17;;;12.00;99.90;;;;;;5027851;28;21025;-74
2024/04/03 13:45:21;;;;;;;1.83;1.13;;;12.10;99.90;;;;;;5025537;28;21448;-73
2024/04/03 13:48:07;;;;;;;2.10;1.40;;;12.10;99.90;;;;;;5031080;28;20506;-74
2024/04/03 13:50:52;;;;;;;2.50;1.50;;;12.00;99.90;;;;;;5025619;28;20448;-74
2024/04/03 13:53:38;;;;;;;2.87;1.37;;;11.80;99.90;;;;;;5025592;28;20949;-73
2024/04/03 13:56:23;;;;;;;6.93;1.87;;;11.80;99.90;;;;;;5027196;28;20543;-74
2024/04/03 13:59:09;;;;;;;2.90;1.53;;;11.80;99.90;;;;;;5024574;28;20499;-72
2024/04/03 14:01:53;;;;;;;4.67;1.90;;;11.80;99.90;;;;;;5020405;28;21069;-74
2024/04/03 14:04:40;;;;;;;2.90;1.70;;;11.70;99.90;;;;;;5023117;28;20990;-74
2024/04/03 14:07:24;;;;;;;2.20;1.43;;;11.70;99.90;;;;;;5023191;28;20467;-74
2024/04/03 14:10:11;;;;;;;7.60;3.17;;;11.60;99.90;;;;;;5021332;28;20513;-73
2024/04/03 14:12:56;;;;;;;9.23;3.20;;;11.50;99.90;;;;;;5026468;28;20467;-74
2024/04/03 14:15:42;;;;;;;6.73;3.10;;;11.50;99.90;;;;;;5022389;28;20946;-73
2024/04/03 14:18:26;;;;;;;4.77;2.17;;;11.50;99.90;;;;;;5020580;28;20525;-74
2024/04/03 14:21:12;;;;;;;3.40;2.10;;;11.60;99.90;;;;;;5021643;28;20540;-73
2024/04/03 14:23:57;;;;;;;2.30;1.80;;;11.70;99.90;;;;;;5024778;28;20450;-74
2024/04/03 14:26:44;;;;;;;5.27;2.90;;;11.70;99.90;;;;;;5021386;28;20450;-74